sensor_id;sensor_type;location;lat;lon;timestamp;P1;durP1;ratioP1;P2;durP2;ratioP2
7831;SDS011;3961;42.058;25.586;2022-07-29T00:00:40;6.07;;;4.10;;
7831;SDS011;3961;42.058;25.586;2022-07-29T00:03:09;7.80;;;4.30;;
7831;SDS011;3961;42.058;25.586;2022-07-29T00:05:35;7.20;;;4.40;;
7831;SDS011;3961;42.058;25.586;2022-07-29T00:08:01;6.13;;;4.57;;
7831;SDS011;3961;42.058;25.586;2022-07-29T00:10:27;5.80;;;4.40;;
7831;SDS011;3961;42.058;25.586;2022-07-29T00:12:52;6.50;;;4.60;;
7831;SDS011;3961;42.058;25.586;2022-07-29T00:15:18;10.50;;;5.13;;
7831;SDS011;3961;42.058;25.586;2022-07-29T00:17:43;10.80;;;4.73;;
7831;SDS011;3961;42.058;25.586;2022-07-29T00:20:09;6.17;;;4.57;;
7831;SDS011;3961;42.058;25.586;2022-07-29T00:22:36;9.93;;;4.20;;
7831;SDS011;3961;42.058;25.586;2022-07-29T00:25:03;8.00;;;4.30;;
7831;SDS011;3961;42.058;25.586;2022-07-29T00:27:29;7.47;;;4.73;;
7831;SDS011;3961;42.058;25.586;2022-07-29T00:29:55;10.13;;;4.47;;
7831;SDS011;3961;42.058;25.586;2022-07-29T00:32:20;5.93;;;4.53;;
7831;SDS011;3961;42.058;25.586;2022-07-29T00:34:46;7.00;;;4.23;;
7831;SDS011;3961;42.058;25.586;2022-07-29T00:37:30;11.97;;;4.60;;
7831;SDS011;3961;42.058;25.586;2022-07-29T00:39:55;8.53;;;4.37;;
7831;SDS011;3961;42.058;25.586;2022-07-29T00:42:21;5.93;;;3.90;;
7831;SDS011;3961;42.058;25.586;2022-07-29T00:44:46;7.43;;;4.00;;
7831;SDS011;3961;42.058;25.586;2022-07-29T00:47:12;10.70;;;4.83;;
7831;SDS011;3961;42.058;25.586;2022-07-29T00:49:41;5.07;;;4.17;;
7831;SDS011;3961;42.058;25.586;2022-07-29T00:52:07;9.53;;;4.63;;
7831;SDS011;3961;42.058;25.586;2022-07-29T00:54:34;5.07;;;3.80;;
7831;SDS011;3961;42.058;25.586;2022-07-29T00:57:00;9.93;;;4.23;;
7831;SDS011;3961;42.058;25.586;2022-07-29T00:59:27;6.03;;;3.90;;
7831;SDS011;3961;42.058;25.586;2022-07-29T01:01:53;7.60;;;3.83;;
7831;SDS011;3961;42.058;25.586;2022-07-29T01:04:19;7.03;;;4.03;;
7831;SDS011;3961;42.058;25.586;2022-07-29T01:06:48;5.50;;;4.17;;
7831;SDS011;3961;42.058;25.586;2022-07-29T01:09:14;8.13;;;4.53;;
7831;SDS011;3961;42.058;25.586;2022-07-29T01:11:42;7.27;;;4.33;;
7831;SDS011;3961;42.058;25.586;2022-07-29T01:14:08;12.33;;;4.10;;
7831;SDS011;3961;42.058;25.586;2022-07-29T01:22:29;9.80;;;4.93;;
7831;SDS011;3961;42.058;25.586;2022-07-29T01:30:18;7.27;;;4.90;;
7831;SDS011;3961;42.058;25.586;2022-07-29T01:32:47;10.03;;;4.80;;
7831;SDS011;3961;42.058;25.586;2022-07-29T01:35:19;6.03;;;4.60;;
7831;SDS011;3961;42.058;25.586;2022-07-29T01:37:57;6.70;;;4.20;;
7831;SDS011;3961;42.058;25.586;2022-07-29T01:40:40;9.33;;;5.00;;
7831;SDS011;3961;42.058;25.586;2022-07-29T01:43:10;6.10;;;4.63;;
7831;SDS011;3961;42.058;25.586;2022-07-29T01:48:18;5.97;;;4.07;;
7831;SDS011;3961;42.058;25.586;2022-07-29T01:51:04;8.27;;;5.57;;
7831;SDS011;3961;42.058;25.586;2022-07-29T01:53:37;8.07;;;4.80;;
7831;SDS011;3961;42.058;25.586;2022-07-29T01:56:08;7.37;;;4.77;;
7831;SDS011;3961;42.058;25.586;2022-07-29T01:58:35;8.50;;;5.47;;
7831;SDS011;3961;42.058;25.586;2022-07-29T02:01:03;7.57;;;4.33;;
7831;SDS011;3961;42.058;25.586;2022-07-29T02:03:31;7.23;;;4.90;;
7831;SDS011;3961;42.058;25.586;2022-07-29T02:06:01;6.13;;;4.20;;
7831;SDS011;3961;42.058;25.586;2022-07-29T02:08:28;7.93;;;5.50;;
7831;SDS011;3961;42.058;25.586;2022-07-29T02:10:55;9.37;;;7.00;;
7831;SDS011;3961;42.058;25.586;2022-07-29T02:13:23;7.77;;;5.63;;
7831;SDS011;3961;42.058;25.586;2022-07-29T02:15:51;10.10;;;5.30;;
7831;SDS011;3961;42.058;25.586;2022-07-29T02:18:18;8.57;;;5.30;;
7831;SDS011;3961;42.058;25.586;2022-07-29T02:20:48;9.73;;;5.90;;
7831;SDS011;3961;42.058;25.586;2022-07-29T02:23:16;10.40;;;6.40;;
7831;SDS011;3961;42.058;25.586;2022-07-29T02:25:45;10.13;;;5.63;;
7831;SDS011;3961;42.058;25.586;2022-07-29T02:28:14;12.87;;;5.40;;
7831;SDS011;3961;42.058;25.586;2022-07-29T02:30:42;9.63;;;5.93;;
7831;SDS011;3961;42.058;25.586;2022-07-29T02:33:10;8.83;;;5.40;;
7831;SDS011;3961;42.058;25.586;2022-07-29T02:35:40;8.27;;;5.73;;
7831;SDS011;3961;42.058;25.586;2022-07-29T02:38:09;12.53;;;6.33;;
7831;SDS011;3961;42.058;25.586;2022-07-29T02:40:58;12.50;;;6.07;;
7831;SDS011;3961;42.058;25.586;2022-07-29T02:43:26;8.87;;;5.47;;
7831;SDS011;3961;42.058;25.586;2022-07-29T02:45:53;8.63;;;5.73;;
7831;SDS011;3961;42.058;25.586;2022-07-29T02:48:22;8.03;;;6.13;;
7831;SDS011;3961;42.058;25.586;2022-07-29T02:50:59;11.10;;;6.37;;
7831;SDS011;3961;42.058;25.586;2022-07-29T02:53:32;12.00;;;7.40;;
7831;SDS011;3961;42.058;25.586;2022-07-29T02:55:59;12.77;;;9.27;;
7831;SDS011;3961;42.058;25.586;2022-07-29T02:58:30;17.87;;;9.30;;
7831;SDS011;3961;42.058;25.586;2022-07-29T03:00:59;12.93;;;8.37;;
7831;SDS011;3961;42.058;25.586;2022-07-29T03:03:29;12.03;;;6.87;;
7831;SDS011;3961;42.058;25.586;2022-07-29T03:06:00;11.30;;;6.33;;
7831;SDS011;3961;42.058;25.586;2022-07-29T03:08:27;10.40;;;6.30;;
7831;SDS011;3961;42.058;25.586;2022-07-29T03:10:53;10.13;;;6.77;;
7831;SDS011;3961;42.058;25.586;2022-07-29T03:13:20;10.80;;;7.07;;
7831;SDS011;3961;42.058;25.586;2022-07-29T03:15:47;14.87;;;9.23;;
7831;SDS011;3961;42.058;25.586;2022-07-29T03:18:13;10.20;;;7.03;;
7831;SDS011;3961;42.058;25.586;2022-07-29T03:20:39;10.60;;;6.63;;
7831;SDS011;3961;42.058;25.586;2022-07-29T03:23:05;13.00;;;6.93;;
7831;SDS011;3961;42.058;25.586;2022-07-29T03:25:31;7.83;;;6.00;;
7831;SDS011;3961;42.058;25.586;2022-07-29T03:27:57;11.07;;;5.97;;
7831;SDS011;3961;42.058;25.586;2022-07-29T03:30:22;11.30;;;5.90;;
7831;SDS011;3961;42.058;25.586;2022-07-29T03:32:48;7.97;;;5.63;;
7831;SDS011;3961;42.058;25.586;2022-07-29T03:35:15;12.93;;;7.33;;
7831;SDS011;3961;42.058;25.586;2022-07-29T03:37:44;11.63;;;6.13;;
7831;SDS011;3961;42.058;25.586;2022-07-29T03:40:11;6.43;;;5.17;;
7831;SDS011;3961;42.058;25.586;2022-07-29T03:42:43;8.80;;;6.20;;
7831;SDS011;3961;42.058;25.586;2022-07-29T03:45:12;12.17;;;5.57;;
7831;SDS011;3961;42.058;25.586;2022-07-29T03:47:42;8.97;;;5.93;;
7831;SDS011;3961;42.058;25.586;2022-07-29T03:50:17;8.93;;;5.40;;
7831;SDS011;3961;42.058;25.586;2022-07-29T03:52:45;8.87;;;5.37;;
7831;SDS011;3961;42.058;25.586;2022-07-29T03:55:11;8.30;;;5.43;;
7831;SDS011;3961;42.058;25.586;2022-07-29T03:57:37;7.77;;;5.60;;
7831;SDS011;3961;42.058;25.586;2022-07-29T04:00:04;9.80;;;5.20;;
7831;SDS011;3961;42.058;25.586;2022-07-29T04:02:31;9.90;;;4.60;;
7831;SDS011;3961;42.058;25.586;2022-07-29T04:04:58;7.07;;;4.63;;
7831;SDS011;3961;42.058;25.586;2022-07-29T04:07:24;7.83;;;4.60;;
7831;SDS011;3961;42.058;25.586;2022-07-29T04:09:49;11.23;;;5.00;;
7831;SDS011;3961;42.058;25.586;2022-07-29T04:12:15;9.57;;;5.30;;
7831;SDS011;3961;42.058;25.586;2022-07-29T04:14:41;12.03;;;6.40;;
7831;SDS011;3961;42.058;25.586;2022-07-29T04:17:06;13.18;;;4.47;;
7831;SDS011;3961;42.058;25.586;2022-07-29T04:19:33;8.90;;;4.50;;
7831;SDS011;3961;42.058;25.586;2022-07-29T04:21:59;10.40;;;4.55;;
7831;SDS011;3961;42.058;25.586;2022-07-29T04:24:25;6.05;;;3.92;;
7831;SDS011;3961;42.058;25.586;2022-07-29T04:26:52;9.13;;;5.13;;
7831;SDS011;3961;42.058;25.586;2022-07-29T04:29:18;7.20;;;4.45;;
7831;SDS011;3961;42.058;25.586;2022-07-29T04:31:43;7.30;;;4.20;;
7831;SDS011;3961;42.058;25.586;2022-07-29T04:34:09;52.17;;;7.18;;
7831;SDS011;3961;42.058;25.586;2022-07-29T04:36:35;11.27;;;5.20;;
7831;SDS011;3961;42.058;25.586;2022-07-29T04:39:01;5.60;;;4.60;;
7831;SDS011;3961;42.058;25.586;2022-07-29T04:41:27;8.43;;;4.60;;
7831;SDS011;3961;42.058;25.586;2022-07-29T04:43:53;11.55;;;4.95;;
7831;SDS011;3961;42.058;25.586;2022-07-29T04:46:19;6.82;;;4.60;;
7831;SDS011;3961;42.058;25.586;2022-07-29T04:48:45;7.88;;;4.45;;
7831;SDS011;3961;42.058;25.586;2022-07-29T04:51:12;7.45;;;4.60;;
7831;SDS011;3961;42.058;25.586;2022-07-29T04:53:38;6.60;;;4.90;;
7831;SDS011;3961;42.058;25.586;2022-07-29T04:56:04;7.50;;;5.45;;
7831;SDS011;3961;42.058;25.586;2022-07-29T04:58:30;7.38;;;4.72;;
7831;SDS011;3961;42.058;25.586;2022-07-29T05:00:55;8.88;;;7.20;;
7831;SDS011;3961;42.058;25.586;2022-07-29T05:03:21;7.32;;;4.72;;
7831;SDS011;3961;42.058;25.586;2022-07-29T05:05:46;8.60;;;4.85;;
7831;SDS011;3961;42.058;25.586;2022-07-29T05:08:12;8.27;;;5.10;;
7831;SDS011;3961;42.058;25.586;2022-07-29T05:10:37;7.75;;;4.95;;
7831;SDS011;3961;42.058;25.586;2022-07-29T05:13:04;4.95;;;4.35;;
7831;SDS011;3961;42.058;25.586;2022-07-29T05:15:31;9.40;;;4.95;;
7831;SDS011;3961;42.058;25.586;2022-07-29T05:17:56;9.50;;;5.03;;
7831;SDS011;3961;42.058;25.586;2022-07-29T05:20:22;10.93;;;6.72;;
7831;SDS011;3961;42.058;25.586;2022-07-29T05:22:51;7.45;;;5.07;;
7831;SDS011;3961;42.058;25.586;2022-07-29T05:25:17;5.53;;;4.10;;
7831;SDS011;3961;42.058;25.586;2022-07-29T05:27:43;9.20;;;4.68;;
7831;SDS011;3961;42.058;25.586;2022-07-29T05:30:08;22.23;;;6.47;;
7831;SDS011;3961;42.058;25.586;2022-07-29T05:32:34;8.55;;;4.75;;
7831;SDS011;3961;42.058;25.586;2022-07-29T05:35:00;7.60;;;4.53;;
7831;SDS011;3961;42.058;25.586;2022-07-29T05:37:25;7.03;;;4.30;;
7831;SDS011;3961;42.058;25.586;2022-07-29T05:39:51;6.55;;;4.05;;
7831;SDS011;3961;42.058;25.586;2022-07-29T05:42:16;12.68;;;4.80;;
7831;SDS011;3961;42.058;25.586;2022-07-29T05:44:42;6.28;;;4.68;;
7831;SDS011;3961;42.058;25.586;2022-07-29T05:47:07;11.95;;;5.22;;
7831;SDS011;3961;42.058;25.586;2022-07-29T05:49:33;12.98;;;4.85;;
7831;SDS011;3961;42.058;25.586;2022-07-29T05:51:59;13.48;;;5.07;;
7831;SDS011;3961;42.058;25.586;2022-07-29T05:54:25;8.80;;;4.65;;
7831;SDS011;3961;42.058;25.586;2022-07-29T05:56:50;16.33;;;5.40;;
7831;SDS011;3961;42.058;25.586;2022-07-29T05:59:16;7.80;;;4.35;;
7831;SDS011;3961;42.058;25.586;2022-07-29T06:01:42;7.85;;;4.82;;
7831;SDS011;3961;42.058;25.586;2022-07-29T06:04:07;5.18;;;4.35;;
7831;SDS011;3961;42.058;25.586;2022-07-29T06:06:34;10.50;;;5.60;;
7831;SDS011;3961;42.058;25.586;2022-07-29T06:09:00;8.23;;;4.87;;
7831;SDS011;3961;42.058;25.586;2022-07-29T06:11:26;7.57;;;4.33;;
7831;SDS011;3961;42.058;25.586;2022-07-29T06:13:52;11.30;;;4.87;;
7831;SDS011;3961;42.058;25.586;2022-07-29T06:16:22;7.70;;;4.23;;
7831;SDS011;3961;42.058;25.586;2022-07-29T06:18:48;8.63;;;4.53;;
7831;SDS011;3961;42.058;25.586;2022-07-29T06:21:14;9.97;;;4.20;;
7831;SDS011;3961;42.058;25.586;2022-07-29T06:23:39;6.23;;;4.20;;
7831;SDS011;3961;42.058;25.586;2022-07-29T06:26:05;8.37;;;4.83;;
7831;SDS011;3961;42.058;25.586;2022-07-29T06:28:32;5.70;;;4.27;;
7831;SDS011;3961;42.058;25.586;2022-07-29T06:30:58;15.03;;;5.20;;
7831;SDS011;3961;42.058;25.586;2022-07-29T06:33:24;14.90;;;4.33;;
7831;SDS011;3961;42.058;25.586;2022-07-29T06:35:50;9.83;;;4.23;;
7831;SDS011;3961;42.058;25.586;2022-07-29T06:38:16;11.63;;;4.60;;
7831;SDS011;3961;42.058;25.586;2022-07-29T06:40:44;7.10;;;4.90;;
7831;SDS011;3961;42.058;25.586;2022-07-29T06:43:33;9.03;;;4.80;;
7831;SDS011;3961;42.058;25.586;2022-07-29T06:46:06;8.33;;;5.20;;
7831;SDS011;3961;42.058;25.586;2022-07-29T06:48:34;5.13;;;4.63;;
7831;SDS011;3961;42.058;25.586;2022-07-29T06:51:01;9.73;;;5.63;;
7831;SDS011;3961;42.058;25.586;2022-07-29T06:53:28;6.93;;;4.77;;
7831;SDS011;3961;42.058;25.586;2022-07-29T06:55:54;6.60;;;4.20;;
7831;SDS011;3961;42.058;25.586;2022-07-29T06:58:19;10.63;;;4.50;;
7831;SDS011;3961;42.058;25.586;2022-07-29T07:00:46;5.47;;;4.55;;
7831;SDS011;3961;42.058;25.586;2022-07-29T07:03:13;14.20;;;4.40;;
7831;SDS011;3961;42.058;25.586;2022-07-29T07:05:39;10.05;;;4.95;;
7831;SDS011;3961;42.058;25.586;2022-07-29T07:08:05;8.02;;;3.60;;
7831;SDS011;3961;42.058;25.586;2022-07-29T07:10:31;8.40;;;4.32;;
7831;SDS011;3961;42.058;25.586;2022-07-29T07:12:57;7.72;;;4.40;;
7831;SDS011;3961;42.058;25.586;2022-07-29T07:15:23;9.90;;;4.68;;
7831;SDS011;3961;42.058;25.586;2022-07-29T07:17:48;6.22;;;3.80;;
7831;SDS011;3961;42.058;25.586;2022-07-29T07:20:14;3.70;;;3.38;;
7831;SDS011;3961;42.058;25.586;2022-07-29T07:22:40;13.48;;;4.50;;
7831;SDS011;3961;42.058;25.586;2022-07-29T07:25:06;5.10;;;3.70;;
7831;SDS011;3961;42.058;25.586;2022-07-29T07:27:32;12.18;;;3.17;;
7831;SDS011;3961;42.058;25.586;2022-07-29T07:29:57;7.53;;;3.30;;
7831;SDS011;3961;42.058;25.586;2022-07-29T07:32:23;9.35;;;3.42;;
7831;SDS011;3961;42.058;25.586;2022-07-29T07:34:49;7.22;;;3.45;;
7831;SDS011;3961;42.058;25.586;2022-07-29T07:37:14;4.15;;;3.25;;
7831;SDS011;3961;42.058;25.586;2022-07-29T07:39:40;8.32;;;3.25;;
7831;SDS011;3961;42.058;25.586;2022-07-29T07:42:06;4.35;;;3.15;;
7831;SDS011;3961;42.058;25.586;2022-07-29T07:44:32;8.77;;;2.92;;
7831;SDS011;3961;42.058;25.586;2022-07-29T07:46:57;16.00;;;11.02;;
7831;SDS011;3961;42.058;25.586;2022-07-29T07:49:23;5.20;;;3.28;;
7831;SDS011;3961;42.058;25.586;2022-07-29T07:51:49;9.07;;;3.30;;
7831;SDS011;3961;42.058;25.586;2022-07-29T07:54:14;6.28;;;2.90;;
7831;SDS011;3961;42.058;25.586;2022-07-29T07:56:40;4.32;;;2.97;;
7831;SDS011;3961;42.058;25.586;2022-07-29T07:59:05;3.60;;;3.00;;
7831;SDS011;3961;42.058;25.586;2022-07-29T08:01:31;3.85;;;3.30;;
7831;SDS011;3961;42.058;25.586;2022-07-29T08:03:57;5.90;;;3.00;;
7831;SDS011;3961;42.058;25.586;2022-07-29T08:06:22;8.93;;;3.42;;
7831;SDS011;3961;42.058;25.586;2022-07-29T08:08:50;5.00;;;3.63;;
7831;SDS011;3961;42.058;25.586;2022-07-29T08:11:16;6.10;;;2.88;;
7831;SDS011;3961;42.058;25.586;2022-07-29T08:13:42;6.07;;;3.10;;
7831;SDS011;3961;42.058;25.586;2022-07-29T08:16:08;15.45;;;3.40;;
7831;SDS011;3961;42.058;25.586;2022-07-29T08:18:38;12.93;;;4.78;;
7831;SDS011;3961;42.058;25.586;2022-07-29T08:21:05;7.68;;;4.25;;
7831;SDS011;3961;42.058;25.586;2022-07-29T08:23:31;8.50;;;3.75;;
7831;SDS011;3961;42.058;25.586;2022-07-29T08:26:04;8.65;;;4.50;;
7831;SDS011;3961;42.058;25.586;2022-07-29T08:28:38;7.70;;;4.15;;
7831;SDS011;3961;42.058;25.586;2022-07-29T08:31:04;4.55;;;3.67;;
7831;SDS011;3961;42.058;25.586;2022-07-29T08:33:30;3.65;;;3.35;;
7831;SDS011;3961;42.058;25.586;2022-07-29T08:35:56;7.15;;;3.55;;
7831;SDS011;3961;42.058;25.586;2022-07-29T08:38:21;8.93;;;3.85;;
7831;SDS011;3961;42.058;25.586;2022-07-29T08:40:47;4.80;;;3.83;;
7831;SDS011;3961;42.058;25.586;2022-07-29T08:43:13;4.53;;;3.83;;
7831;SDS011;3961;42.058;25.586;2022-07-29T08:45:49;6.60;;;4.53;;
7831;SDS011;3961;42.058;25.586;2022-07-29T08:48:17;6.97;;;3.63;;
7831;SDS011;3961;42.058;25.586;2022-07-29T08:50:44;6.82;;;4.15;;
7831;SDS011;3961;42.058;25.586;2022-07-29T08:53:11;7.10;;;4.07;;
7831;SDS011;3961;42.058;25.586;2022-07-29T08:55:39;6.50;;;4.13;;
7831;SDS011;3961;42.058;25.586;2022-07-29T08:58:13;8.40;;;3.95;;
7831;SDS011;3961;42.058;25.586;2022-07-29T09:01:01;6.75;;;4.43;;
7831;SDS011;3961;42.058;25.586;2022-07-29T09:03:29;6.32;;;4.25;;
7831;SDS011;3961;42.058;25.586;2022-07-29T09:05:57;6.18;;;3.47;;
7831;SDS011;3961;42.058;25.586;2022-07-29T09:08:24;6.95;;;3.75;;
7831;SDS011;3961;42.058;25.586;2022-07-29T09:10:51;8.10;;;3.90;;
7831;SDS011;3961;42.058;25.586;2022-07-29T09:13:17;6.93;;;3.50;;
7831;SDS011;3961;42.058;25.586;2022-07-29T09:15:43;6.18;;;3.40;;
7831;SDS011;3961;42.058;25.586;2022-07-29T09:18:10;9.35;;;3.47;;
7831;SDS011;3961;42.058;25.586;2022-07-29T09:20:35;8.40;;;4.05;;
7831;SDS011;3961;42.058;25.586;2022-07-29T09:23:20;5.20;;;3.17;;
7831;SDS011;3961;42.058;25.586;2022-07-29T09:25:45;8.63;;;3.40;;
7831;SDS011;3961;42.058;25.586;2022-07-29T09:28:12;5.82;;;3.10;;
7831;SDS011;3961;42.058;25.586;2022-07-29T09:30:52;4.93;;;3.60;;
7831;SDS011;3961;42.058;25.586;2022-07-29T09:33:24;4.60;;;3.53;;
7831;SDS011;3961;42.058;25.586;2022-07-29T09:36:02;3.28;;;2.95;;
7831;SDS011;3961;42.058;25.586;2022-07-29T09:38:30;5.70;;;3.10;;
7831;SDS011;3961;42.058;25.586;2022-07-29T09:41:00;4.40;;;3.30;;
7831;SDS011;3961;42.058;25.586;2022-07-29T09:43:27;5.45;;;3.35;;
7831;SDS011;3961;42.058;25.586;2022-07-29T09:45:52;7.80;;;3.50;;
7831;SDS011;3961;42.058;25.586;2022-07-29T09:48:20;4.38;;;3.22;;
7831;SDS011;3961;42.058;25.586;2022-07-29T09:50:47;5.07;;;3.30;;
7831;SDS011;3961;42.058;25.586;2022-07-29T09:53:34;6.10;;;3.38;;
7831;SDS011;3961;42.058;25.586;2022-07-29T09:56:02;3.45;;;2.88;;
7831;SDS011;3961;42.058;25.586;2022-07-29T09:58:28;8.10;;;3.30;;
7831;SDS011;3961;42.058;25.586;2022-07-29T10:00:54;6.70;;;3.45;;
7831;SDS011;3961;42.058;25.586;2022-07-29T10:03:22;4.78;;;2.85;;
7831;SDS011;3961;42.058;25.586;2022-07-29T10:08:38;9.75;;;3.20;;
7831;SDS011;3961;42.058;25.586;2022-07-29T10:11:10;12.77;;;4.10;;
7831;SDS011;3961;42.058;25.586;2022-07-29T10:13:38;5.13;;;3.10;;
7831;SDS011;3961;42.058;25.586;2022-07-29T10:16:05;21.70;;;4.97;;
7831;SDS011;3961;42.058;25.586;2022-07-29T10:18:31;5.85;;;3.15;;
7831;SDS011;3961;42.058;25.586;2022-07-29T10:20:57;7.22;;;4.13;;
7831;SDS011;3961;42.058;25.586;2022-07-29T10:23:23;5.60;;;3.40;;
7831;SDS011;3961;42.058;25.586;2022-07-29T10:25:50;6.65;;;3.42;;
7831;SDS011;3961;42.058;25.586;2022-07-29T10:28:15;4.80;;;3.33;;
7831;SDS011;3961;42.058;25.586;2022-07-29T10:30:41;6.15;;;3.20;;
7831;SDS011;3961;42.058;25.586;2022-07-29T10:41:18;3.40;;;3.10;;
7831;SDS011;3961;42.058;25.586;2022-07-29T10:44:02;12.85;;;3.22;;
7831;SDS011;3961;42.058;25.586;2022-07-29T10:46:38;5.22;;;3.45;;
7831;SDS011;3961;42.058;25.586;2022-07-29T11:00:31;4.50;;;3.17;;
7831;SDS011;3961;42.058;25.586;2022-07-29T11:02:50;6.18;;;3.40;;
7831;SDS011;3961;42.058;25.586;2022-07-29T11:05:20;9.52;;;3.25;;
7831;SDS011;3961;42.058;25.586;2022-07-29T11:10:42;4.47;;;3.25;;
7831;SDS011;3961;42.058;25.586;2022-07-29T11:13:08;7.60;;;3.55;;
7831;SDS011;3961;42.058;25.586;2022-07-29T11:15:54;4.68;;;2.65;;
7831;SDS011;3961;42.058;25.586;2022-07-29T11:18:22;5.97;;;3.15;;
7831;SDS011;3961;42.058;25.586;2022-07-29T11:20:49;9.05;;;3.63;;
7831;SDS011;3961;42.058;25.586;2022-07-29T11:23:26;6.95;;;2.90;;
7831;SDS011;3961;42.058;25.586;2022-07-29T11:31:19;7.57;;;3.08;;
7831;SDS011;3961;42.058;25.586;2022-07-29T11:39:30;5.00;;;3.13;;
7831;SDS011;3961;42.058;25.586;2022-07-29T11:45:06;3.22;;;2.92;;
7831;SDS011;3961;42.058;25.586;2022-07-29T11:47:32;6.20;;;3.15;;
7831;SDS011;3961;42.058;25.586;2022-07-29T11:50:02;6.60;;;3.10;;
7831;SDS011;3961;42.058;25.586;2022-07-29T11:52:33;7.72;;;3.10;;
7831;SDS011;3961;42.058;25.586;2022-07-29T11:55:03;6.68;;;3.13;;
7831;SDS011;3961;42.058;25.586;2022-07-29T11:57:30;4.38;;;2.78;;
7831;SDS011;3961;42.058;25.586;2022-07-29T11:59:58;3.55;;;2.70;;
7831;SDS011;3961;42.058;25.586;2022-07-29T12:02:23;5.53;;;3.42;;
7831;SDS011;3961;42.058;25.586;2022-07-29T12:04:49;6.65;;;2.95;;
7831;SDS011;3961;42.058;25.586;2022-07-29T12:07:26;9.40;;;3.08;;
7831;SDS011;3961;42.058;25.586;2022-07-29T12:09:55;5.00;;;3.13;;
7831;SDS011;3961;42.058;25.586;2022-07-29T12:12:22;4.20;;;2.97;;
7831;SDS011;3961;42.058;25.586;2022-07-29T12:14:48;9.27;;;3.10;;
7831;SDS011;3961;42.058;25.586;2022-07-29T12:19:59;4.68;;;2.85;;
7831;SDS011;3961;42.058;25.586;2022-07-29T12:22:27;10.15;;;3.13;;
7831;SDS011;3961;42.058;25.586;2022-07-29T12:25:06;5.38;;;2.95;;
7831;SDS011;3961;42.058;25.586;2022-07-29T12:27:36;5.80;;;3.10;;
7831;SDS011;3961;42.058;25.586;2022-07-29T12:30:07;2.85;;;2.55;;
7831;SDS011;3961;42.058;25.586;2022-07-29T12:35:12;6.90;;;2.90;;
7831;SDS011;3961;42.058;25.586;2022-07-29T12:37:43;6.75;;;2.90;;
7831;SDS011;3961;42.058;25.586;2022-07-29T12:40:13;31.15;;;6.18;;
7831;SDS011;3961;42.058;25.586;2022-07-29T12:42:41;5.45;;;2.65;;
7831;SDS011;3961;42.058;25.586;2022-07-29T12:45:30;5.97;;;3.03;;
7831;SDS011;3961;42.058;25.586;2022-07-29T12:47:56;7.55;;;2.75;;
7831;SDS011;3961;42.058;25.586;2022-07-29T12:50:22;3.28;;;2.70;;
7831;SDS011;3961;42.058;25.586;2022-07-29T12:52:47;3.22;;;2.67;;
7831;SDS011;3961;42.058;25.586;2022-07-29T12:55:13;3.95;;;3.00;;
7831;SDS011;3961;42.058;25.586;2022-07-29T12:57:46;8.95;;;3.15;;
7831;SDS011;3961;42.058;25.586;2022-07-29T13:00:14;5.32;;;3.08;;
7831;SDS011;3961;42.058;25.586;2022-07-29T13:02:41;5.70;;;3.00;;
7831;SDS011;3961;42.058;25.586;2022-07-29T13:05:08;4.95;;;3.38;;
7831;SDS011;3961;42.058;25.586;2022-07-29T13:07:36;5.45;;;2.63;;
7831;SDS011;3961;42.058;25.586;2022-07-29T13:12:37;4.72;;;2.83;;
7831;SDS011;3961;42.058;25.586;2022-07-29T13:15:13;5.10;;;3.20;;
7831;SDS011;3961;42.058;25.586;2022-07-29T13:17:40;5.22;;;2.70;;
7831;SDS011;3961;42.058;25.586;2022-07-29T13:20:08;10.90;;;3.10;;
7831;SDS011;3961;42.058;25.586;2022-07-29T13:22:38;7.10;;;2.90;;
7831;SDS011;3961;42.058;25.586;2022-07-29T13:25:04;5.10;;;2.80;;
7831;SDS011;3961;42.058;25.586;2022-07-29T13:27:34;8.20;;;3.28;;
7831;SDS011;3961;42.058;25.586;2022-07-29T13:30:03;5.93;;;2.83;;
7831;SDS011;3961;42.058;25.586;2022-07-29T13:32:30;3.97;;;2.97;;
7831;SDS011;3961;42.058;25.586;2022-07-29T13:34:57;6.80;;;3.03;;
7831;SDS011;3961;42.058;25.586;2022-07-29T13:37:25;5.22;;;2.70;;
7831;SDS011;3961;42.058;25.586;2022-07-29T13:39:51;6.57;;;3.70;;
7831;SDS011;3961;42.058;25.586;2022-07-29T13:42:18;3.72;;;2.88;;
7831;SDS011;3961;42.058;25.586;2022-07-29T13:44:43;4.85;;;2.97;;
7831;SDS011;3961;42.058;25.586;2022-07-29T13:47:09;8.32;;;3.20;;
7831;SDS011;3961;42.058;25.586;2022-07-29T13:49:34;6.95;;;3.08;;
7831;SDS011;3961;42.058;25.586;2022-07-29T13:52:00;6.18;;;3.08;;
7831;SDS011;3961;42.058;25.586;2022-07-29T13:54:26;7.72;;;2.90;;
7831;SDS011;3961;42.058;25.586;2022-07-29T13:56:52;7.28;;;2.50;;
7831;SDS011;3961;42.058;25.586;2022-07-29T13:59:18;7.82;;;2.78;;
7831;SDS011;3961;42.058;25.586;2022-07-29T14:01:43;5.82;;;3.17;;
7831;SDS011;3961;42.058;25.586;2022-07-29T14:04:09;2.92;;;2.50;;
7831;SDS011;3961;42.058;25.586;2022-07-29T14:06:35;7.35;;;2.97;;
7831;SDS011;3961;42.058;25.586;2022-07-29T14:09:01;5.28;;;2.67;;
7831;SDS011;3961;42.058;25.586;2022-07-29T14:11:27;4.03;;;2.60;;
7831;SDS011;3961;42.058;25.586;2022-07-29T14:13:53;3.88;;;2.40;;
7831;SDS011;3961;42.058;25.586;2022-07-29T14:16:18;5.75;;;2.47;;
7831;SDS011;3961;42.058;25.586;2022-07-29T14:18:44;3.70;;;3.00;;
7831;SDS011;3961;42.058;25.586;2022-07-29T14:21:10;6.13;;;2.80;;
7831;SDS011;3961;42.058;25.586;2022-07-29T14:23:36;4.75;;;2.55;;
7831;SDS011;3961;42.058;25.586;2022-07-29T14:26:01;4.13;;;3.03;;
7831;SDS011;3961;42.058;25.586;2022-07-29T14:28:27;3.42;;;2.58;;
7831;SDS011;3961;42.058;25.586;2022-07-29T14:30:52;6.93;;;3.00;;
7831;SDS011;3961;42.058;25.586;2022-07-29T14:33:18;6.00;;;2.80;;
7831;SDS011;3961;42.058;25.586;2022-07-29T14:35:44;8.02;;;2.70;;
7831;SDS011;3961;42.058;25.586;2022-07-29T14:38:09;3.25;;;2.47;;
7831;SDS011;3961;42.058;25.586;2022-07-29T14:40:35;5.57;;;2.83;;
7831;SDS011;3961;42.058;25.586;2022-07-29T14:43:01;10.05;;;3.08;;
7831;SDS011;3961;42.058;25.586;2022-07-29T14:45:27;5.60;;;2.88;;
7831;SDS011;3961;42.058;25.586;2022-07-29T14:47:53;3.75;;;2.55;;
7831;SDS011;3961;42.058;25.586;2022-07-29T14:50:19;5.60;;;2.95;;
7831;SDS011;3961;42.058;25.586;2022-07-29T14:52:45;5.20;;;2.75;;
7831;SDS011;3961;42.058;25.586;2022-07-29T14:55:11;7.25;;;2.75;;
7831;SDS011;3961;42.058;25.586;2022-07-29T14:57:37;4.20;;;3.00;;
7831;SDS011;3961;42.058;25.586;2022-07-29T15:00:04;6.93;;;3.00;;
7831;SDS011;3961;42.058;25.586;2022-07-29T15:02:48;3.38;;;2.60;;
7831;SDS011;3961;42.058;25.586;2022-07-29T15:05:14;6.22;;;2.70;;
7831;SDS011;3961;42.058;25.586;2022-07-29T15:07:40;5.13;;;3.00;;
7831;SDS011;3961;42.058;25.586;2022-07-29T15:10:06;3.97;;;2.60;;
7831;SDS011;3961;42.058;25.586;2022-07-29T15:12:32;4.20;;;2.58;;
7831;SDS011;3961;42.058;25.586;2022-07-29T15:14:58;7.85;;;2.60;;
7831;SDS011;3961;42.058;25.586;2022-07-29T15:17:24;3.55;;;2.50;;
7831;SDS011;3961;42.058;25.586;2022-07-29T15:19:49;5.05;;;2.63;;
7831;SDS011;3961;42.058;25.586;2022-07-29T15:22:15;4.18;;;3.35;;
7831;SDS011;3961;42.058;25.586;2022-07-29T15:24:41;5.22;;;2.28;;
7831;SDS011;3961;42.058;25.586;2022-07-29T15:27:06;5.40;;;3.25;;
7831;SDS011;3961;42.058;25.586;2022-07-29T15:29:32;3.30;;;2.90;;
7831;SDS011;3961;42.058;25.586;2022-07-29T15:31:58;6.00;;;2.55;;
7831;SDS011;3961;42.058;25.586;2022-07-29T15:34:24;3.53;;;2.60;;
7831;SDS011;3961;42.058;25.586;2022-07-29T15:36:50;4.47;;;2.58;;
7831;SDS011;3961;42.058;25.586;2022-07-29T15:39:16;3.70;;;2.80;;
7831;SDS011;3961;42.058;25.586;2022-07-29T15:41:42;6.45;;;2.63;;
7831;SDS011;3961;42.058;25.586;2022-07-29T15:44:08;5.40;;;2.55;;
7831;SDS011;3961;42.058;25.586;2022-07-29T15:46:33;5.20;;;2.90;;
7831;SDS011;3961;42.058;25.586;2022-07-29T15:49:17;4.22;;;3.30;;
7831;SDS011;3961;42.058;25.586;2022-07-29T15:51:42;4.97;;;2.50;;
7831;SDS011;3961;42.058;25.586;2022-07-29T15:54:08;12.35;;;3.42;;
7831;SDS011;3961;42.058;25.586;2022-07-29T15:56:33;6.07;;;3.25;;
7831;SDS011;3961;42.058;25.586;2022-07-29T15:58:59;4.70;;;2.70;;
7831;SDS011;3961;42.058;25.586;2022-07-29T16:01:25;4.95;;;3.13;;